sensor_id;sensor_type;location;lat;lon;timestamp;pressure;altitude;pressure_sealevel;temperature;humidity
37792;BME280;29527;55.766;37.570;2023-02-28T00:00:09;100335.16;;;-6.55;67.49
37792;BME280;29527;55.766;37.570;2023-02-28T00:02:36;100334.25;;;-6.43;67.10
37792;BME280;29527;55.766;37.570;2023-02-28T00:05:02;100316.88;;;-6.41;66.69
37792;BME280;29527;55.766;37.570;2023-02-28T00:07:30;100316.88;;;-6.41;66.67
37792;BME280;29527;55.766;37.570;2023-02-28T00:09:56;100313.41;;;-6.40;66.76
37792;BME280;29527;55.766;37.570;2023-02-28T00:12:21;100316.91;;;-6.47;67.10
37792;BME280;29527;55.766;37.570;2023-02-28T00:14:48;100310.81;;;-6.45;67.06
37792;BME280;29527;55.766;37.570;2023-02-28T00:17:13;100310.81;;;-6.45;67.49
37792;BME280;29527;55.766;37.570;2023-02-28T00:19:39;100310.81;;;-6.45;67.23
37792;BME280;29527;55.766;37.570;2023-02-28T00:22:04;100303.81;;;-6.40;67.32
37792;BME280;29527;55.766;37.570;2023-02-28T00:24:30;100294.28;;;-6.36;67.04
37792;BME280;29527;55.766;37.570;2023-02-28T00:26:56;100262.16;;;-6.46;66.96
37792;BME280;29527;55.766;37.570;2023-02-28T00:29:21;100307.25;;;-6.21;66.81
37792;BME280;29527;55.766;37.570;2023-02-28T00:31:47;100305.50;;;-6.18;66.50
37792;BME280;29527;55.766;37.570;2023-02-28T00:34:12;100301.16;;;-6.18;67.02
37792;BME280;29527;55.766;37.570;2023-02-28T00:36:38;100294.22;;;-6.21;66.42
37792;BME280;29527;55.766;37.570;2023-02-28T00:39:03;100280.34;;;-6.29;66.68
37792;BME280;29527;55.766;37.570;2023-02-28T00:41:29;100288.16;;;-6.23;66.13
37792;BME280;29527;55.766;37.570;2023-02-28T00:43:54;100278.63;;;-6.27;66.14
37792;BME280;29527;55.766;37.570;2023-02-28T00:46:19;100247.44;;;-6.49;66.14
37792;BME280;29527;55.766;37.570;2023-02-28T00:48:45;100286.47;;;-6.35;66.36
37792;BME280;29527;55.766;37.570;2023-02-28T00:51:10;100284.75;;;-6.39;66.11
37792;BME280;29527;55.766;37.570;2023-02-28T00:53:36;100270.00;;;-6.46;66.24
37792;BME280;29527;55.766;37.570;2023-02-28T00:56:01;100283.91;;;-6.49;66.07
37792;BME280;29527;55.766;37.570;2023-02-28T00:58:27;100271.75;;;-6.56;66.25
37792;BME280;29527;55.766;37.570;2023-02-28T01:00:53;100266.56;;;-6.59;66.57
37792;BME280;29527;55.766;37.570;2023-02-28T01:03:19;100267.44;;;-6.58;66.20
37792;BME280;29527;55.766;37.570;2023-02-28T01:05:46;100205.06;;;-7.02;66.50
37792;BME280;29527;55.766;37.570;2023-02-28T01:08:12;100265.72;;;-6.64;66.18
37792;BME280;29527;55.766;37.570;2023-02-28T01:10:37;100248.34;;;-6.62;66.54
37792;BME280;29527;55.766;37.570;2023-02-28T01:13:03;100245.72;;;-6.62;66.61
37792;BME280;29527;55.766;37.570;2023-02-28T01:15:29;100223.19;;;-6.68;66.55
37792;BME280;29527;55.766;37.570;2023-02-28T01:17:57;100179.00;;;-6.86;66.04
37792;BME280;29527;55.766;37.570;2023-02-28T01:20:23;100206.72;;;-6.73;66.50
37792;BME280;29527;55.766;37.570;2023-02-28T01:22:48;100218.84;;;-6.67;66.38
37792;BME280;29527;55.766;37.570;2023-02-28T01:25:14;100211.03;;;-6.72;66.14
37792;BME280;29527;55.766;37.570;2023-02-28T01:27:39;100209.31;;;-6.78;66.38
37792;BME280;29527;55.766;37.570;2023-02-28T01:30:07;100194.59;;;-6.83;67.07
37792;BME280;29527;55.766;37.570;2023-02-28T01:32:32;100202.41;;;-6.89;66.39
37792;BME280;29527;55.766;37.570;2023-02-28T01:34:58;100196.38;;;-6.93;66.70
37792;BME280;29527;55.766;37.570;2023-02-28T01:37:23;100179.06;;;-7.11;66.66
37792;BME280;29527;55.766;37.570;2023-02-28T01:39:49;100194.66;;;-7.08;67.00
37792;BME280;29527;55.766;37.570;2023-02-28T01:42:14;100152.19;;;-7.30;67.54
37792;BME280;29527;55.766;37.570;2023-02-28T01:47:28;100164.28;;;-7.08;67.52
37792;BME280;29527;55.766;37.570;2023-02-28T01:49:54;100166.06;;;-7.11;67.54
37792;BME280;29527;55.766;37.570;2023-02-28T01:52:21;100161.72;;;-7.09;67.27
37792;BME280;29527;55.766;37.570;2023-02-28T01:54:54;100154.75;;;-7.13;67.31
37792;BME280;29527;55.766;37.570;2023-02-28T01:57:25;100168.63;;;-7.10;67.67
37792;BME280;29527;55.766;37.570;2023-02-28T02:00:06;100165.16;;;-7.07;67.79
37792;BME280;29527;55.766;37.570;2023-02-28T02:02:33;100146.09;;;-7.15;67.65
37792;BME280;29527;55.766;37.570;2023-02-28T02:05:09;100148.69;;;-7.11;67.15
37792;BME280;29527;55.766;37.570;2023-02-28T02:07:37;100141.75;;;-7.16;67.69
37792;BME280;29527;55.766;37.570;2023-02-28T02:15:16;100133.13;;;-7.20;67.50
37792;BME280;29527;55.766;37.570;2023-02-28T02:17:48;100137.44;;;-7.19;67.78
37792;BME280;29527;55.766;37.570;2023-02-28T02:25:57;100125.25;;;-7.03;67.39
37792;BME280;29527;55.766;37.570;2023-02-28T02:31:48;100123.50;;;-6.96;67.81
37792;BME280;29527;55.766;37.570;2023-02-28T02:34:37;100111.34;;;-6.97;67.58
37792;BME280;29527;55.766;37.570;2023-02-28T02:39:47;100113.97;;;-7.02;67.83
37792;BME280;29527;55.766;37.570;2023-02-28T02:43:02;100108.72;;;-7.00;67.81
37792;BME280;29527;55.766;37.570;2023-02-28T02:45:32;100088.78;;;-6.95;67.64
37792;BME280;29527;55.766;37.570;2023-02-28T02:48:02;100090.50;;;-7.00;67.38
37792;BME280;29527;55.766;37.570;2023-02-28T02:50:37;100077.56;;;-7.08;67.54
37792;BME280;29527;55.766;37.570;2023-02-28T02:53:05;100049.00;;;-7.22;67.83
37792;BME280;29527;55.766;37.570;2023-02-28T02:55:33;100078.41;;;-7.03;67.47
37792;BME280;29527;55.766;37.570;2023-02-28T02:58:03;100074.91;;;-7.00;67.62
37792;BME280;29527;55.766;37.570;2023-02-28T03:00:34;100038.53;;;-7.17;67.64
37792;BME280;29527;55.766;37.570;2023-02-28T03:03:02;100053.22;;;-7.01;67.04
37792;BME280;29527;55.766;37.570;2023-02-28T03:05:34;100061.06;;;-7.04;67.22
37792;BME280;29527;55.766;37.570;2023-02-28T03:08:04;100056.69;;;-6.97;66.91
37792;BME280;29527;55.766;37.570;2023-02-28T03:10:37;100048.00;;;-6.98;67.06
37792;BME280;29527;55.766;37.570;2023-02-28T03:15:58;100040.16;;;-6.95;67.54
37792;BME280;29527;55.766;37.570;2023-02-28T03:18:40;100042.78;;;-6.99;67.11
37792;BME280;29527;55.766;37.570;2023-02-28T03:26:26;100021.97;;;-6.99;66.76
37792;BME280;29527;55.766;37.570;2023-02-28T03:29:22;100016.75;;;-6.95;67.32
37792;BME280;29527;55.766;37.570;2023-02-28T03:31:58;100004.66;;;-7.05;66.81
37792;BME280;29527;55.766;37.570;2023-02-28T03:34:37;100001.09;;;-6.92;66.45
37792;BME280;29527;55.766;37.570;2023-02-28T03:37:10;100013.25;;;-6.92;66.33
37792;BME280;29527;55.766;37.570;2023-02-28T03:39:49;100001.88;;;-6.74;66.66
37792;BME280;29527;55.766;37.570;2023-02-28T03:42:23;99997.56;;;-6.83;66.17
37792;BME280;29527;55.766;37.570;2023-02-28T03:44:56;99997.63;;;-6.89;66.23
37792;BME280;29527;55.766;37.570;2023-02-28T03:50:07;99989.81;;;-6.89;66.10
37792;BME280;29527;55.766;37.570;2023-02-28T03:52:39;99990.72;;;-6.93;66.19
37792;BME280;29527;55.766;37.570;2023-02-28T03:55:10;99981.16;;;-6.93;66.23
37792;BME280;29527;55.766;37.570;2023-02-28T03:57:53;99973.31;;;-6.88;66.16
37792;BME280;29527;55.766;37.570;2023-02-28T04:00:35;99966.38;;;-6.89;66.23
37792;BME280;29527;55.766;37.570;2023-02-28T04:03:03;99962.06;;;-6.92;65.88
37792;BME280;29527;55.766;37.570;2023-02-28T04:05:30;99911.88;;;-7.11;65.96
37792;BME280;29527;55.766;37.570;2023-02-28T04:08:04;99947.31;;;-6.91;65.92
37792;BME280;29527;55.766;37.570;2023-02-28T04:10:29;99943.84;;;-6.95;66.26
37792;BME280;29527;55.766;37.570;2023-02-28T04:12:55;99929.13;;;-6.99;66.00
37792;BME280;29527;55.766;37.570;2023-02-28T04:15:20;99931.75;;;-6.97;65.83
37792;BME280;29527;55.766;37.570;2023-02-28T04:17:48;99930.00;;;-7.01;66.04
37792;BME280;29527;55.766;37.570;2023-02-28T04:20:13;99942.13;;;-6.94;65.95
37792;BME280;29527;55.766;37.570;2023-02-28T04:22:38;99950.75;;;-6.89;65.66
37792;BME280;29527;55.766;37.570;2023-02-28T04:25:04;99936.91;;;-6.93;65.83
37792;BME280;29527;55.766;37.570;2023-02-28T04:27:30;99929.09;;;-6.93;65.59
37792;BME280;29527;55.766;37.570;2023-02-28T04:29:56;99929.94;;;-6.89;65.65
37792;BME280;29527;55.766;37.570;2023-02-28T04:32:21;99921.22;;;-6.85;65.88
37792;BME280;29527;55.766;37.570;2023-02-28T04:34:47;99882.28;;;-6.97;65.97
37792;BME280;29527;55.766;37.570;2023-02-28T04:37:12;99916.78;;;-6.70;65.66
37792;BME280;29527;55.766;37.570;2023-02-28T04:39:38;99889.06;;;-6.81;65.37
37792;BME280;29527;55.766;37.570;2023-02-28T04:42:04;99896.72;;;-6.59;64.58
37792;BME280;29527;55.766;37.570;2023-02-28T04:44:30;99901.00;;;-6.53;65.02
37792;BME280;29527;55.766;37.570;2023-02-28T04:46:55;99901.75;;;-6.42;64.54
37792;BME280;29527;55.766;37.570;2023-02-28T04:49:21;99890.38;;;-6.31;64.06
37792;BME280;29527;55.766;37.570;2023-02-28T04:51:46;99892.00;;;-6.21;64.33
37792;BME280;29527;55.766;37.570;2023-02-28T04:54:11;99867.63;;;-6.17;63.20
37792;BME280;29527;55.766;37.570;2023-02-28T04:56:38;99875.34;;;-6.08;63.03
37792;BME280;29527;55.766;37.570;2023-02-28T04:59:03;99872.53;;;-5.95;62.71
37792;BME280;29527;55.766;37.570;2023-02-28T05:01:33;99875.53;;;-4.96;62.39
37792;BME280;29527;55.766;37.570;2023-02-28T05:04:01;99856.69;;;-2.95;56.97
37792;BME280;29527;55.766;37.570;2023-02-28T05:06:28;99858.69;;;-1.14;51.81
37792;BME280;29527;55.766;37.570;2023-02-28T05:08:55;99845.56;;;-0.35;49.25
37792;BME280;29527;55.766;37.570;2023-02-28T05:11:24;99835.63;;;0.21;47.65
37792;BME280;29527;55.766;37.570;2023-02-28T05:13:50;99848.44;;;0.99;46.01
37792;BME280;29527;55.766;37.570;2023-02-28T05:16:16;99821.53;;;1.54;44.52
37792;BME280;29527;55.766;37.570;2023-02-28T05:18:42;99816.91;;;1.99;42.95
37792;BME280;29527;55.766;37.570;2023-02-28T05:21:25;99813.25;;;2.23;43.79
37792;BME280;29527;55.766;37.570;2023-02-28T05:23:52;99812.09;;;2.84;41.25
37792;BME280;29527;55.766;37.570;2023-02-28T05:26:17;99793.63;;;4.38;39.01
37792;BME280;29527;55.766;37.570;2023-02-28T05:28:43;99789.19;;;6.06;35.59
37792;BME280;29527;55.766;37.570;2023-02-28T05:31:11;99747.91;;;7.10;33.32
37792;BME280;29527;55.766;37.570;2023-02-28T05:33:37;99746.59;;;8.19;31.39
37792;BME280;29527;55.766;37.570;2023-02-28T05:36:03;99757.78;;;9.11;29.55
37792;BME280;29527;55.766;37.570;2023-02-28T05:38:29;99753.31;;;9.93;28.71
37792;BME280;29527;55.766;37.570;2023-02-28T05:40:55;99741.41;;;10.75;27.08
37792;BME280;29527;55.766;37.570;2023-02-28T05:43:21;99742.50;;;11.26;25.56
37792;BME280;29527;55.766;37.570;2023-02-28T05:45:47;99741.25;;;11.73;25.19
37792;BME280;29527;55.766;37.570;2023-02-28T05:48:12;99702.03;;;12.13;24.30
37792;BME280;29527;55.766;37.570;2023-02-28T05:50:38;99729.53;;;12.85;23.40
37792;BME280;29527;55.766;37.570;2023-02-28T05:53:03;99727.56;;;13.46;22.57
37792;BME280;29527;55.766;37.570;2023-02-28T05:55:28;99708.63;;;13.76;21.84
37792;BME280;29527;55.766;37.570;2023-02-28T05:57:54;99705.75;;;14.15;21.26
37792;BME280;29527;55.766;37.570;2023-02-28T06:00:19;99719.31;;;14.88;20.28
37792;BME280;29527;55.766;37.570;2023-02-28T06:02:45;99697.25;;;15.55;19.44
37792;BME280;29527;55.766;37.570;2023-02-28T06:05:16;99703.38;;;15.92;19.71
37792;BME280;29527;55.766;37.570;2023-02-28T06:07:43;99692.72;;;14.57;20.00
37792;BME280;29527;55.766;37.570;2023-02-28T06:10:10;99687.41;;;14.47;20.43
37792;BME280;29527;55.766;37.570;2023-02-28T06:12:36;99672.69;;;15.14;19.48
37792;BME280;29527;55.766;37.570;2023-02-28T06:15:02;99659.59;;;15.80;18.63
37792;BME280;29527;55.766;37.570;2023-02-28T06:17:29;99664.31;;;16.13;18.08
37792;BME280;29527;55.766;37.570;2023-02-28T06:19:55;99650.53;;;15.89;18.16
37792;BME280;29527;55.766;37.570;2023-02-28T06:22:21;99640.81;;;15.35;18.48
37792;BME280;29527;55.766;37.570;2023-02-28T06:24:46;99657.31;;;13.49;20.21
37792;BME280;29527;55.766;37.570;2023-02-28T06:27:12;99616.44;;;12.10;21.25
37792;BME280;29527;55.766;37.570;2023-02-28T06:29:37;99631.09;;;11.24;22.26
37792;BME280;29527;55.766;37.570;2023-02-28T06:32:05;99633.50;;;10.63;23.18
37792;BME280;29527;55.766;37.570;2023-02-28T06:34:30;99626.41;;;9.97;23.83
37792;BME280;29527;55.766;37.570;2023-02-28T06:36:56;99636.50;;;9.25;24.17
37792;BME280;29527;55.766;37.570;2023-02-28T06:39:21;99607.56;;;7.75;26.03
37792;BME280;29527;55.766;37.570;2023-02-28T06:41:47;99631.22;;;6.51;27.99
37792;BME280;29527;55.766;37.570;2023-02-28T06:44:17;99623.16;;;5.41;30.15
37792;BME280;29527;55.766;37.570;2023-02-28T06:46:44;99632.72;;;4.24;31.30
37792;BME280;29527;55.766;37.570;2023-02-28T06:49:10;99624.00;;;3.42;32.50
37792;BME280;29527;55.766;37.570;2023-02-28T06:51:38;99594.94;;;2.91;33.66
37792;BME280;29527;55.766;37.570;2023-02-28T06:54:05;99600.25;;;2.73;34.35
37792;BME280;29527;55.766;37.570;2023-02-28T06:56:34;99587.91;;;2.73;34.37
37792;BME280;29527;55.766;37.570;2023-02-28T06:58:59;99584.97;;;2.44;34.96
37792;BME280;29527;55.766;37.570;2023-02-28T07:01:25;99566.78;;;2.21;35.62
37792;BME280;29527;55.766;37.570;2023-02-28T07:03:53;99545.63;;;1.85;36.25
37792;BME280;29527;55.766;37.570;2023-02-28T07:06:20;99544.94;;;1.63;36.84
37792;BME280;29527;55.766;37.570;2023-02-28T07:08:47;99529.34;;;1.39;37.86
37792;BME280;29527;55.766;37.570;2023-02-28T07:11:13;99544.06;;;1.45;37.53
37792;BME280;29527;55.766;37.570;2023-02-28T07:13:38;99551.69;;;1.32;38.10
37792;BME280;29527;55.766;37.570;2023-02-28T07:16:06;99542.63;;;1.18;38.95
37792;BME280;29527;55.766;37.570;2023-02-28T07:18:33;99533.25;;;1.12;39.10
37792;BME280;29527;55.766;37.570;2023-02-28T07:21:02;99539.16;;;0.98;39.64
37792;BME280;29527;55.766;37.570;2023-02-28T07:23:27;99521.44;;;0.81;40.29
37792;BME280;29527;55.766;37.570;2023-02-28T07:25:53;99527.38;;;0.87;40.24
37792;BME280;29527;55.766;37.570;2023-02-28T07:28:18;99523.31;;;0.98;40.30
37792;BME280;29527;55.766;37.570;2023-02-28T07:30:44;99524.75;;;1.06;40.53
37792;BME280;29527;55.766;37.570;2023-02-28T07:33:09;99520.19;;;1.09;40.18
37792;BME280;29527;55.766;37.570;2023-02-28T07:35:34;99513.72;;;0.97;40.82
37792;BME280;29527;55.766;37.570;2023-02-28T07:38:00;99506.78;;;0.95;40.85
37792;BME280;29527;55.766;37.570;2023-02-28T07:40:26;99497.31;;;1.10;41.03
37792;BME280;29527;55.766;37.570;2023-02-28T07:42:51;99495.53;;;1.29;41.21
37792;BME280;29527;55.766;37.570;2023-02-28T07:45:17;99493.34;;;1.38;40.83
37792;BME280;29527;55.766;37.570;2023-02-28T07:47:43;99502.31;;;1.53;41.33
37792;BME280;29527;55.766;37.570;2023-02-28T07:50:11;99498.63;;;1.75;40.83
37792;BME280;29527;55.766;37.570;2023-02-28T07:52:37;99488.94;;;1.75;40.72
37792;BME280;29527;55.766;37.570;2023-02-28T07:55:05;99493.59;;;1.70;41.12
37792;BME280;29527;55.766;37.570;2023-02-28T07:57:30;99495.00;;;1.77;40.98
37792;BME280;29527;55.766;37.570;2023-02-28T07:59:56;99493.13;;;1.79;41.10
37792;BME280;29527;55.766;37.570;2023-02-28T08:02:21;99483.56;;;1.77;41.08
37792;BME280;29527;55.766;37.570;2023-02-28T08:04:47;99482.69;;;1.58;41.89
37792;BME280;29527;55.766;37.570;2023-02-28T08:07:14;99491.22;;;1.46;42.32
37792;BME280;29527;55.766;37.570;2023-02-28T08:09:40;99475.09;;;1.52;42.52
37792;BME280;29527;55.766;37.570;2023-02-28T08:12:06;99476.94;;;1.50;42.47
37792;BME280;29527;55.766;37.570;2023-02-28T08:14:32;99469.66;;;1.55;42.77
37792;BME280;29527;55.766;37.570;2023-02-28T08:16:58;99459.66;;;1.62;42.56
37792;BME280;29527;55.766;37.570;2023-02-28T08:19:23;99437.38;;;1.68;42.49
37792;BME280;29527;55.766;37.570;2023-02-28T08:21:49;99433.56;;;1.56;43.24
37792;BME280;29527;55.766;37.570;2023-02-28T08:24:14;99418.66;;;1.55;43.42
37792;BME280;29527;55.766;37.570;2023-02-28T08:26:40;99412.72;;;1.69;42.98
37792;BME280;29527;55.766;37.570;2023-02-28T08:29:05;99416.34;;;1.84;43.00
37792;BME280;29527;55.766;37.570;2023-02-28T08:31:30;99410.38;;;1.80;43.33
37792;BME280;29527;55.766;37.570;2023-02-28T08:33:56;99398.31;;;1.75;42.69
37792;BME280;29527;55.766;37.570;2023-02-28T08:36:24;99412.53;;;1.54;43.59
37792;BME280;29527;55.766;37.570;2023-02-28T08:38:50;99479.66;;;1.49;43.71
37792;BME280;29527;55.766;37.570;2023-02-28T08:41:16;99480.13;;;1.20;44.46
37792;BME280;29527;55.766;37.570;2023-02-28T08:43:41;99474.81;;;1.03;45.03
37792;BME280;29527;55.766;37.570;2023-02-28T08:46:07;99473.59;;;0.91;45.50
37792;BME280;29527;55.766;37.570;2023-02-28T08:48:36;99461.06;;;0.77;45.79
37792;BME280;29527;55.766;37.570;2023-02-28T08:51:06;99472.56;;;0.74;45.97
37792;BME280;29527;55.766;37.570;2023-02-28T08:53:32;99455.19;;;0.51;46.36
37792;BME280;29527;55.766;37.570;2023-02-28T08:56:00;99459.34;;;0.36;47.13
37792;BME280;29527;55.766;37.570;2023-02-28T08:58:26;99458.25;;;0.21;47.57
37792;BME280;29527;55.766;37.570;2023-02-28T09:00:52;99449.66;;;0.17;47.83
37792;BME280;29527;55.766;37.570;2023-02-28T09:03:18;99441.34;;;0.06;48.03
37792;BME280;29527;55.766;37.570;2023-02-28T09:05:59;99440.16;;;0.13;48.70
37792;BME280;29527;55.766;37.570;2023-02-28T09:08:27;99431.03;;;0.01;48.59
37792;BME280;29527;55.766;37.570;2023-02-28T09:10:52;99427.16;;;-0.11;48.69
37792;BME280;29527;55.766;37.570;2023-02-28T09:13:19;99412.28;;;-0.12;49.21
37792;BME280;29527;55.766;37.570;2023-02-28T09:15:45;99420.75;;;-0.05;49.58
37792;BME280;29527;55.766;37.570;2023-02-28T09:18:11;99402.13;;;-0.01;49.16
37792;BME280;29527;55.766;37.570;2023-02-28T09:20:38;99393.75;;;0.10;49.09
37792;BME280;29527;55.766;37.570;2023-02-28T09:23:05;99395.34;;;0.14;48.39
37792;BME280;29527;55.766;37.570;2023-02-28T09:25:31;99388.84;;;0.22;48.98
37792;BME280;29527;55.766;37.570;2023-02-28T09:27:56;99394.50;;;0.33;48.36
37792;BME280;29527;55.766;37.570;2023-02-28T09:30:22;99381.88;;;0.21;47.97
37792;BME280;29527;55.766;37.570;2023-02-28T09:32:47;99400.75;;;0.31;48.71
37792;BME280;29527;55.766;37.570;2023-02-28T09:35:24;99409.88;;;0.42;49.13
37792;BME280;29527;55.766;37.570;2023-02-28T09:37:51;99415.94;;;0.45;48.84
37792;BME280;29527;55.766;37.570;2023-02-28T09:40:18;99415.88;;;0.46;48.74
37792;BME280;29527;55.766;37.570;2023-02-28T09:42:48;99407.34;;;0.60;48.39
37792;BME280;29527;55.766;37.570;2023-02-28T09:47:52;99388.97;;;0.59;48.95
37792;BME280;29527;55.766;37.570;2023-02-28T09:52:52;99377.56;;;0.77;48.43
37792;BME280;29527;55.766;37.570;2023-02-28T09:55:30;99378.75;;;0.89;48.41
37792;BME280;29527;55.766;37.570;2023-02-28T09:57:59;99374.50;;;0.87;48.03
37792;BME280;29527;55.766;37.570;2023-02-28T10:00:39;99370.69;;;0.75;48.79
37792;BME280;29527;55.766;37.570;2023-02-28T10:03:29;99357.59;;;0.54;49.39
37792;BME280;29527;55.766;37.570;2023-02-28T10:06:20;99367.03;;;0.58;49.20
37792;BME280;29527;55.766;37.570;2023-02-28T10:11:19;99354.16;;;0.52;49.84
37792;BME280;29527;55.766;37.570;2023-02-28T10:16:22;99334.59;;;0.38;50.37
37792;BME280;29527;55.766;37.570;2023-02-28T10:21:41;99329.31;;;0.38;50.49
37792;BME280;29527;55.766;37.570;2023-02-28T10:24:30;99325.91;;;0.36;50.19
37792;BME280;29527;55.766;37.570;2023-02-28T10:27:13;99316.28;;;0.35;50.67
37792;BME280;29527;55.766;37.570;2023-02-28T10:29:42;99310.53;;;0.27;50.73
37792;BME280;29527;55.766;37.570;2023-02-28T10:32:11;99314.44;;;0.37;50.46
37792;BME280;29527;55.766;37.570;2023-02-28T10:34:39;99305.91;;;0.32;50.21
37792;BME280;29527;55.766;37.570;2023-02-28T10:37:05;99297.94;;;0.14;51.14
37792;BME280;29527;55.766;37.570;2023-02-28T10:39:45;99299.78;;;0.12;51.25
37792;BME280;29527;55.766;37.570;2023-02-28T10:42:26;99297.94;;;0.14;51.37
37792;BME280;29527;55.766;37.570;2023-02-28T10:48:00;99295.88;;;0.21;51.10
37792;BME280;29527;55.766;37.570;2023-02-28T10:52:54;99295.28;;;0.14;51.67
37792;BME280;29527;55.766;37.570;2023-02-28T10:55:25;99287.34;;;0.16;51.69
37792;BME280;29527;55.766;37.570;2023-02-28T10:57:52;99283.50;;;0.23;51.42
37792;BME280;29527;55.766;37.570;2023-02-28T11:00:25;99268.69;;;0.21;52.26
37792;BME280;29527;55.766;37.570;2023-02-28T11:02:52;99274.72;;;0.23;51.38
37792;BME280;29527;55.766;37.570;2023-02-28T11:05:27;99212.06;;;-0.07;52.25
37792;BME280;29527;55.766;37.570;2023-02-28T11:07:55;99270.69;;;0.16;52.57
37792;BME280;29527;55.766;37.570;2023-02-28T11:10:25;99262.06;;;0.12;52.61
37792;BME280;29527;55.766;37.570;2023-02-28T11:12:55;99256.09;;;0.08;52.85
37792;BME280;29527;55.766;37.570;2023-02-28T11:15:26;99270.09;;;0.09;52.55
37792;BME280;29527;55.766;37.570;2023-02-28T11:18:00;99255.53;;;0.02;53.07
37792;BME280;29527;55.766;37.570;2023-02-28T11:20:29;99252.41;;;-0.07;53.51
37792;BME280;29527;55.766;37.570;2023-02-28T11:22:57;99249.78;;;-0.07;53.22
37792;BME280;29527;55.766;37.570;2023-02-28T11:25:35;99245.88;;;0.02;53.56
37792;BME280;29527;55.766;37.570;2023-02-28T11:28:04;99242.72;;;-0.06;53.91
37792;BME280;29527;55.766;37.570;2023-02-28T11:30:34;99245.19;;;-0.03;54.31
37792;BME280;29527;55.766;37.570;2023-02-28T11:33:00;99246.56;;;0.25;53.35
37792;BME280;29527;55.766;37.570;2023-02-28T11:35:31;99251.53;;;0.12;53.61
37792;BME280;29527;55.766;37.570;2023-02-28T11:38:00;99239.09;;;0.16;53.78
37792;BME280;29527;55.766;37.570;2023-02-28T11:40:41;99232.38;;;0.27;53.70
37792;BME280;29527;55.766;37.570;2023-02-28T11:49:15;99236.28;;;0.75;53.24
37792;BME280;29527;55.766;37.570;2023-02-28T11:55:01;99209.63;;;0.81;53.97
37792;BME280;29527;55.766;37.570;2023-02-28T11:57:48;99189.44;;;0.62;55.19
37792;BME280;29527;55.766;37.570;2023-02-28T12:05:31;99210.91;;;0.54;56.75
37792;BME280;29527;55.766;37.570;2023-02-28T12:08:03;99202.44;;;0.48;57.16
37792;BME280;29527;55.766;37.570;2023-02-28T12:11:12;99196.19;;;0.50;57.51
37792;BME280;29527;55.766;37.570;2023-02-28T12:19:31;99183.91;;;0.32;58.57
37792;BME280;29527;55.766;37.570;2023-02-28T12:22:12;99197.56;;;0.40;58.41
37792;BME280;29527;55.766;37.570;2023-02-28T12:27:19;99184.16;;;0.27;59.11
37792;BME280;29527;55.766;37.570;2023-02-28T12:29:52;99186.28;;;0.19;59.23
37792;BME280;29527;55.766;37.570;2023-02-28T12:32:36;99185.84;;;0.28;59.51
37792;BME280;29527;55.766;37.570;2023-02-28T12:35:11;99180.75;;;0.25;59.31
37792;BME280;29527;55.766;37.570;2023-02-28T12:37:46;99174.81;;;0.20;59.91
37792;BME280;29527;55.766;37.570;2023-02-28T12:40:22;99173.91;;;0.21;59.60
37792;BME280;29527;55.766;37.570;2023-02-28T12:42:58;99169.81;;;0.15;59.82
37792;BME280;29527;55.766;37.570;2023-02-28T12:45:36;99071.38;;;-0.56;60.42
37792;BME280;29527;55.766;37.570;2023-02-28T12:48:08;99153.84;;;-0.19;61.79
37792;BME280;29527;55.766;37.570;2023-02-28T12:50:37;99125.81;;;-0.39;61.49
37792;BME280;29527;55.766;37.570;2023-02-28T12:58:48;99122.59;;;-0.07;61.30
37792;BME280;29527;55.766;37.570;2023-02-28T13:04:25;99114.69;;;-0.07;61.10
37792;BME280;29527;55.766;37.570;2023-02-28T13:07:29;99118.25;;;-0.08;61.34
37792;BME280;29527;55.766;37.570;2023-02-28T13:09:57;99108.50;;;-0.06;61.38
37792;BME280;29527;55.766;37.570;2023-02-28T13:12:25;99110.56;;;-0.13;61.17
37792;BME280;29527;55.766;37.570;2023-02-28T13:15:04;99101.38;;;-0.04;61.02
37792;BME280;29527;55.766;37.570;2023-02-28T13:17:38;99102.56;;;-0.10;61.30
37792;BME280;29527;55.766;37.570;2023-02-28T13:20:17;99109.22;;;-0.03;61.29
37792;BME280;29527;55.766;37.570;2023-02-28T13:22:46;99110.16;;;-0.04;60.75
37792;BME280;29527;55.766;37.570;2023-02-28T13:28:00;99108.22;;;0.00;61.36
37792;BME280;29527;55.766;37.570;2023-02-28T13:33:26;99112.31;;;0.06;61.47
37792;BME280;29527;55.766;37.570;2023-02-28T13:38:55;99080.97;;;0.01;61.66
37792;BME280;29527;55.766;37.570;2023-02-28T13:46:33;99079.56;;;-0.06;61.59
37792;BME280;29527;55.766;37.570;2023-02-28T13:51:52;99061.69;;;0.01;61.73
37792;BME280;29527;55.766;37.570;2023-02-28T14:05:20;99064.78;;;-0.09;61.96
37792;BME280;29527;55.766;37.570;2023-02-28T14:07:57;99053.00;;;-0.19;62.57
37792;BME280;29527;55.766;37.570;2023-02-28T14:10:31;99075.84;;;-0.02;62.77
37792;BME280;29527;55.766;37.570;2023-02-28T14:15:55;99073.09;;;0.01;62.10
37792;BME280;29527;55.766;37.570;2023-02-28T14:18:36;99069.66;;;-0.01;62.86
37792;BME280;29527;55.766;37.570;2023-02-28T14:32:05;99058.28;;;-0.02;63.12
37792;BME280;29527;55.766;37.570;2023-02-28T14:34:39;99010.13;;;-0.21;63.34
37792;BME280;29527;55.766;37.570;2023-02-28T14:37:15;99002.44;;;-0.26;63.17
37792;BME280;29527;55.766;37.570;2023-02-28T14:39:43;99038.22;;;-0.04;64.03
37792;BME280;29527;55.766;37.570;2023-02-28T14:42:28;99035.44;;;-0.01;63.92
37792;BME280;29527;55.766;37.570;2023-02-28T14:44:55;99026.47;;;-0.15;64.21
37792;BME280;29527;55.766;37.570;2023-02-28T14:47:23;99004.78;;;-0.37;65.13
37792;BME280;29527;55.766;37.570;2023-02-28T14:49:51;99016.63;;;-0.28;65.65
37792;BME280;29527;55.766;37.570;2023-02-28T14:52:20;99028.00;;;-0.10;65.27
37792;BME280;29527;55.766;37.570;2023-02-28T14:54:53;99017.47;;;-0.10;65.27
37792;BME280;29527;55.766;37.570;2023-02-28T14:57:31;99013.22;;;-0.13;65.48
37792;BME280;29527;55.766;37.570;2023-02-28T15:00:07;99012.31;;;-0.12;66.21
37792;BME280;29527;55.766;37.570;2023-02-28T15:02:37;98983.41;;;-0.31;65.94
37792;BME280;29527;55.766;37.570;2023-02-28T15:07:35;99025.38;;;-0.10;66.40